createdAt,value
2022-10-14T06:11:18.450Z,17.40
2022-10-14T06:12:18.409Z,18.80
2022-10-14T06:20:55.066Z,17.20
2022-10-14T06:21:55.023Z,17.40
2022-10-14T06:22:54.972Z,15.00
2022-10-14T06:23:54.929Z,17.70
2022-10-14T06:24:54.885Z,15.10
2022-10-14T06:25:54.834Z,16.90
2022-10-14T06:26:54.808Z,16.10
2022-10-14T06:27:54.756Z,15.00
2022-10-14T06:28:54.807Z,15.80
2022-10-14T06:29:54.660Z,15.30
2022-10-14T06:30:54.612Z,18.00
2022-10-14T06:31:54.570Z,15.80
2022-10-14T06:32:54.521Z,17.20
2022-10-14T06:33:54.477Z,15.20
2022-10-14T06:34:54.428Z,14.50
2022-10-14T06:35:54.382Z,15.20
2022-10-14T06:36:56.486Z,16.00
2022-10-14T06:37:54.294Z,13.70
2022-10-14T06:38:54.250Z,14.90
2022-10-14T06:39:54.208Z,15.20
2022-10-14T06:40:54.157Z,16.60
2022-10-14T06:41:54.116Z,15.80
2022-10-14T06:42:54.096Z,15.80
2022-10-14T06:43:54.024Z,14.80
2022-10-14T06:44:53.979Z,14.10
2022-10-14T06:45:53.934Z,13.80
2022-10-14T06:46:53.894Z,17.00
2022-10-14T06:47:53.856Z,14.00
2022-10-14T06:48:53.800Z,13.80
2022-10-14T06:49:53.755Z,13.20
2022-10-14T06:50:53.708Z,14.60
2022-10-14T06:51:53.671Z,14.30
2022-10-14T06:52:53.620Z,15.20
2022-10-14T06:53:53.578Z,13.50
2022-10-14T06:54:53.531Z,12.20
2022-10-14T06:55:53.491Z,15.70
2022-10-14T06:56:53.452Z,13.50
2022-10-14T06:57:53.420Z,15.60
2022-10-14T06:58:53.372Z,14.30
2022-10-14T06:59:53.310Z,14.40
2022-10-14T07:00:53.349Z,13.60
2022-10-14T07:01:53.243Z,12.60
2022-10-14T07:02:53.179Z,12.50
2022-10-14T07:03:55.906Z,14.40
2022-10-14T07:04:53.087Z,12.50
2022-10-14T07:05:53.069Z,12.80
2022-10-14T07:06:53.004Z,12.20
2022-10-14T07:07:53.000Z,11.30
2022-10-14T07:08:52.916Z,12.30
2022-10-14T07:09:52.873Z,13.10
2022-10-14T07:10:52.819Z,15.70
2022-10-14T07:11:52.786Z,13.40
2022-10-14T07:12:52.762Z,15.40
2022-10-14T07:13:52.685Z,16.70
2022-10-14T07:14:52.661Z,13.80
2022-10-14T07:15:52.601Z,14.50
2022-10-14T07:16:52.560Z,11.50
2022-10-14T07:17:52.514Z,11.80
2022-10-14T07:18:52.494Z,11.30
2022-10-14T07:19:52.434Z,11.40
2022-10-14T07:20:52.378Z,11.20
2022-10-14T07:21:52.333Z,10.80
2022-10-14T07:22:52.289Z,13.30
2022-10-14T07:23:52.250Z,10.70
2022-10-14T07:24:52.213Z,10.10
2022-10-14T07:25:52.177Z,11.00
2022-10-14T07:26:52.204Z,9.50
2022-10-14T07:27:52.067Z,12.50
2022-10-14T07:28:52.108Z,10.70
2022-10-14T07:29:51.976Z,9.90
2022-10-14T07:30:51.946Z,9.70
2022-10-14T07:31:51.898Z,8.30
2022-10-14T07:32:51.850Z,10.00
2022-10-14T07:33:51.804Z,10.60
2022-10-14T07:34:51.757Z,9.20
2022-10-14T07:35:51.708Z,10.00
2022-10-14T07:36:51.666Z,11.10
2022-10-14T07:37:51.626Z,9.40
2022-10-14T07:38:51.577Z,8.80
2022-10-14T07:39:51.535Z,9.00
2022-10-14T07:40:51.490Z,8.30
2022-10-14T07:41:51.444Z,9.10
2022-10-14T07:42:51.409Z,7.60
2022-10-14T07:43:51.367Z,8.10
2022-10-14T07:44:51.310Z,10.70
2022-10-14T07:45:51.305Z,9.60
2022-10-14T07:46:51.237Z,8.80
2022-10-14T07:47:51.191Z,7.80
2022-10-14T07:48:57.276Z,9.80
2022-10-14T07:50:51.051Z,7.10
2022-10-14T07:51:51.003Z,8.20
2022-10-14T07:52:50.959Z,9.10
2022-10-14T07:53:50.926Z,12.70
2022-10-14T07:54:50.884Z,9.10
2022-10-14T07:55:50.823Z,12.40
2022-10-14T07:56:50.785Z,7.90
2022-10-14T07:57:50.736Z,8.50
2022-10-14T07:58:50.693Z,12.50
2022-10-14T07:59:50.646Z,8.80
2022-10-14T08:00:50.604Z,12.70
2022-10-14T08:01:50.646Z,13.60
2022-10-14T08:02:50.538Z,8.10
2022-10-14T08:03:50.469Z,7.60
2022-10-14T08:04:50.440Z,7.10
2022-10-14T08:05:50.389Z,7.10
2022-10-14T08:06:50.336Z,8.50
2022-10-14T08:07:50.298Z,8.40
2022-10-14T08:08:50.254Z,5.80
2022-10-14T08:09:50.205Z,6.20
2022-10-14T08:10:50.165Z,7.90
2022-10-14T08:11:50.116Z,7.20
2022-10-14T08:12:50.077Z,5.70
2022-10-14T08:13:50.027Z,7.00
2022-10-14T08:14:49.984Z,13.60
2022-10-14T08:15:49.937Z,8.30
2022-10-14T08:16:49.907Z,7.70
2022-10-14T08:17:49.851Z,5.80
2022-10-14T08:18:49.827Z,6.60
2022-10-14T08:19:49.764Z,6.60
2022-10-14T08:20:49.722Z,6.10
2022-10-14T08:21:49.683Z,12.50
2022-10-14T08:22:49.637Z,7.30
2022-10-14T08:23:49.587Z,19.40
2022-10-14T08:24:49.544Z,10.70
2022-10-14T08:25:49.503Z,6.40
2022-10-14T08:26:49.453Z,6.20
2022-10-14T08:27:49.415Z,10.90
2022-10-14T08:28:49.490Z,5.30
2022-10-14T08:29:49.320Z,5.10
2022-10-14T08:30:49.277Z,6.20
2022-10-14T08:31:49.238Z,6.30
2022-10-14T08:32:49.195Z,5.80
2022-10-14T08:33:49.145Z,5.30
2022-10-14T08:34:49.127Z,5.00
2022-10-14T08:35:53.088Z,5.00
2022-10-14T08:36:49.033Z,4.50
2022-10-14T08:37:48.968Z,4.70
2022-10-14T08:38:48.932Z,7.50
2022-10-14T08:39:48.877Z,6.20
2022-10-14T08:40:53.375Z,7.30
2022-10-14T08:41:48.800Z,5.10
2022-10-14T08:42:48.748Z,5.20
2022-10-14T08:43:48.705Z,4.70
2022-10-14T08:44:48.663Z,4.10
2022-10-14T08:45:48.617Z,5.00
2022-10-14T08:46:51.965Z,4.30
2022-10-14T08:47:48.526Z,4.30
2022-10-14T08:48:48.492Z,4.40
2022-10-14T08:49:48.439Z,3.60
2022-10-14T08:50:48.423Z,4.00
